»·PEaware :: N147AT KCNO-KSAN

N147AT :: KCNO-KSAN

FLIGHT INFORMATION

Flight Status: Arrived
Operator: Privately registered:
United States
More flights under this callsign
Pilot: Anonymous 18613 (18613)
Aircraft: CESSNA 172 SKYHAWK
(C172)
More flights by this aircraft type
Origin: KCNO Chino
United States
Destination: KSAN San Diego Intl-Lindbergh
United States
More flights between these airports :: More routes between these airports
Route: PDZ V186 HAILE V66 MZB
File this flight plan on PilotEdge
Remarks: ONTP12
Altitude:
(Current/Filed)
9,000ft
Speed:
(Current/Filed)
120kts
Departed: 05-Oct-18 08:58 AM
Arrived: 05-Oct-18 09:55 AM
Distance/Time
Traveled:
78nm/0:57
Distance/Time
To Go:
Arrived

Flight Plot

Page will automatically refresh every two minutes.


Map Options




Map Legend


Flown Route
Filed Route
Departure Airport
Arrival Airport
Navaid (VOR, NDB)
Fix

Horizontal Profiles

Position Reports

Time Latitude Longitude Heading Altitude Ground
Speed
05-Oct-18 08:43 33.978774 -117.640176 180 653ft 0kts
05-Oct-18 08:44 33.978774 -117.640176 180 653ft 0kts
05-Oct-18 08:45 33.978774 -117.640176 180 653ft 0kts
05-Oct-18 08:46 33.978774 -117.640176 180 653ft 0kts
05-Oct-18 08:47 33.978774 -117.640176 180 653ft 0kts
05-Oct-18 08:48 33.978774 -117.640176 180 653ft 0kts
05-Oct-18 08:49 33.978774 -117.640176 179 653ft 0kts
05-Oct-18 08:50 33.978774 -117.640176 179 653ft 0kts
05-Oct-18 08:51 33.978774 -117.640176 179 653ft 0kts
05-Oct-18 08:52 33.978774 -117.640176 179 653ft 0kts
05-Oct-18 08:53 33.978759 -117.640155 94 653ft 0kts
05-Oct-18 08:54 33.978651 -117.639388 138 653ft 0kts
05-Oct-18 08:55 33.978651 -117.639388 138 653ft 0kts
05-Oct-18 08:56 33.976882 -117.638690 87 653ft 9kts
05-Oct-18 08:57 33.976923 -117.633982 89 653ft 17kts
05-Oct-18 08:58 33.976633 -117.630824 179 653ft 0kts
05-Oct-18 08:59 33.976093 -117.630813 179 653ft 10kts
05-Oct-18 09:00 33.976310 -117.646882 276 940ft 76kts
05-Oct-18 09:01 33.978841 -117.672565 278 1658ft 78kts
05-Oct-18 09:02 33.982105 -117.698415 277 2351ft 78kts
05-Oct-18 09:03 33.984734 -117.724109 283 3004ft 78kts
05-Oct-18 09:04 33.987142 -117.749490 241 3618ft 79kts
05-Oct-18 09:05 33.969971 -117.738440 127 4192ft 89kts
05-Oct-18 09:06 33.955518 -117.712604 124 4705ft 96kts
05-Oct-18 09:07 33.946623 -117.681871 103 5209ft 101kts
05-Oct-18 09:08 33.939517 -117.648313 99 5710ft 104kts
05-Oct-18 09:09 33.932597 -117.614495 97 6205ft 103kts
05-Oct-18 09:10 33.926967 -117.581122 92 6697ft 100kts
05-Oct-18 09:11 33.919252 -117.549747 123 7180ft 100kts
05-Oct-18 09:12 33.898246 -117.527925 134 7667ft 98kts
05-Oct-18 09:13 33.880454 -117.504821 122 8155ft 91kts
05-Oct-18 09:14 33.862947 -117.484520 140 8568ft 92kts
05-Oct-18 09:15 33.840178 -117.463289 138 8790ft 112kts
05-Oct-18 09:16 33.814150 -117.440749 142 9018ft 122kts
05-Oct-18 09:17 33.784452 -117.416153 142 9020ft 134kts
05-Oct-18 09:18 33.753371 -117.390502 142 9017ft 136kts
05-Oct-18 09:19 33.721882 -117.364528 142 9014ft 137kts
05-Oct-18 09:20 33.690814 -117.338814 143 9009ft 137kts
05-Oct-18 09:21 33.659646 -117.312996 143 9002ft 136kts
05-Oct-18 09:22 33.628370 -117.287181 143 8996ft 136kts
05-Oct-18 09:23 33.597058 -117.261392 143 8991ft 136kts
05-Oct-18 09:24 33.565925 -117.235787 143 8987ft 136kts
05-Oct-18 09:25 33.535003 -117.210383 143 8984ft 136kts
05-Oct-18 09:26 33.503771 -117.184751 143 8982ft 136kts
05-Oct-18 09:27 33.472675 -117.159254 143 8980ft 136kts
05-Oct-18 09:28 33.438835 -117.140003 173 8973ft 137kts
05-Oct-18 09:29 33.401088 -117.134839 173 8974ft 137kts
05-Oct-18 09:30 33.363219 -117.129374 171 8976ft 137kts
05-Oct-18 09:31 33.325522 -117.123415 171 8978ft 138kts
05-Oct-18 09:32 33.287684 -117.116634 170 8983ft 138kts
05-Oct-18 09:33 33.249864 -117.109407 168 8988ft 138kts
05-Oct-18 09:34 33.212076 -117.101258 168 8995ft 138kts
05-Oct-18 09:35 33.174500 -117.093076 167 9002ft 137kts
05-Oct-18 09:36 33.136968 -117.084187 167 9010ft 137kts
05-Oct-18 09:37 33.099540 -117.072647 159 8694ft 145kts
05-Oct-18 09:38 33.061097 -117.056888 160 7904ft 146kts
05-Oct-18 09:39 33.023166 -117.041059 160 7114ft 144kts
05-Oct-18 09:40 32.988901 -117.026095 160 7011ft 135kts
05-Oct-18 09:41 32.953917 -117.011117 160 7018ft 134kts
05-Oct-18 09:42 32.919066 -116.996107 160 7026ft 133kts
05-Oct-18 09:43 32.884674 -116.981347 160 7027ft 133kts
05-Oct-18 09:44 32.849841 -116.966473 160 6816ft 137kts
05-Oct-18 09:45 32.814033 -116.951481 160 6014ft 136kts
05-Oct-18 09:46 32.778028 -116.939782 188 5207ft 134kts
05-Oct-18 09:47 32.742527 -116.946295 190 4404ft 126kts
05-Oct-18 09:48 32.709489 -116.952362 190 4036ft 111kts
05-Oct-18 09:49 32.682882 -116.963427 252 4026ft 100kts
05-Oct-18 09:50 32.687836 -116.995409 284 3863ft 110kts
05-Oct-18 09:51 32.694734 -117.031128 289 3231ft 104kts
05-Oct-18 09:52 32.703775 -117.062530 288 2379ft 98kts
05-Oct-18 09:53 32.712243 -117.092349 282 1740ft 104kts
05-Oct-18 09:54 32.717813 -117.125952 285 1075ft 94kts
05-Oct-18 09:55 32.724679 -117.154059 288 618ft 88kts
05-Oct-18 09:56 32.731566 -117.181570 286 31ft 77kts
05-Oct-18 09:57 32.733952 -117.188071 10 21ft 0kts
05-Oct-18 09:58 32.735157 -117.188956 49 21ft 4kts

Navigation Log

Ident Type
1. KCNO Airport
2. PDZ Navaid
3. NIKKL Fix
4. WESIN Fix
5. TANNR Fix
6. DEGLE Fix
7. ROBNN Fix
8. HAILE Fix
9. MZB Navaid
10. KSAN Airport